Time;durP1;ratioP1;P1;durP2;ratioP2;P2;SDS_P1;SDS_P2;PMS_P1;PMS_P2;Temp;Humidity;BMP_temperature;BMP_pressure;BME280_temperature;BME280_humidity;BME280_pressure;Samples;Min_cycle;Max_cycle;Signal;HPM_P1;HPM_P2
2021/12/31 00:01:24;;;;;;;8.50;4.00;;;15.00;85.50;;;;;;5073266;28;20555;-73
2021/12/31 00:03:52;;;;;;;6.80;3.90;;;15.00;85.50;;;;;;5074519;28;20063;-73
2021/12/31 00:06:17;;;;;;;7.10;3.40;;;15.00;85.50;;;;;;5073604;28;20095;-72
2021/12/31 00:08:43;;;;;;;9.88;3.78;;;15.00;85.50;;;;;;5073125;28;20461;-72
2021/12/31 00:11:09;;;;;;;7.28;3.45;;;15.00;85.50;;;;;;5073008;28;20024;-72
2021/12/31 00:13:35;;;;;;;7.35;3.30;;;15.00;85.50;;;;;;5074436;28;20021;-72
2021/12/31 00:16:00;;;;;;;8.20;3.60;;;15.00;85.40;;;;;;5074222;28;20016;-72
2021/12/31 00:18:26;;;;;;;6.05;3.00;;;15.00;85.40;;;;;;5073595;28;20036;-73
2021/12/31 00:20:52;;;;;;;13.40;4.50;;;15.00;85.40;;;;;;5073977;28;20028;-72
2021/12/31 00:23:23;;;;;;;9.07;3.42;;;15.10;85.40;;;;;;5056819;28;20032;-72
2021/12/31 00:25:50;;;;;;;6.30;3.03;;;15.10;85.30;;;;;;5073294;28;20365;-72
2021/12/31 00:28:15;;;;;;;9.05;3.30;;;15.10;85.30;;;;;;5056551;28;20092;-72
2021/12/31 00:30:41;;;;;;;9.10;3.17;;;15.00;85.30;;;;;;5073424;28;20017;-72
2021/12/31 00:33:08;;;;;;;6.63;2.83;;;15.00;85.20;;;;;;5073191;28;20407;-72
2021/12/31 00:35:35;;;;;;;7.45;3.08;;;15.10;85.30;;;;;;5056596;28;20112;-72
2021/12/31 00:38:04;;;;;;;9.20;3.25;;;15.10;85.20;;;;;;5073480;28;20123;-73
2021/12/31 00:40:30;;;;;;;6.97;2.72;;;15.10;85.20;;;;;;5056764;28;20398;-72
2021/12/31 00:42:56;;;;;;;7.18;3.22;;;15.10;85.20;;;;;;5056578;28;20510;-72
2021/12/31 00:45:24;;;;;;;6.82;3.15;;;15.10;85.20;;;;;;5073813;28;20048;-73
2021/12/31 00:47:50;;;;;;;7.07;2.75;;;15.10;85.10;;;;;;5074167;28;20025;-72
2021/12/31 00:50:17;;;;;;;8.88;3.08;;;15.10;85.10;;;;;;5072980;28;20463;-72
2021/12/31 00:52:42;;;;;;;7.70;2.40;;;15.10;85.10;;;;;;5073124;28;20082;-72
2021/12/31 00:55:11;;;;;;;7.40;2.50;;;15.10;85.10;;;;;;5053129;28;20128;-72
2021/12/31 00:57:38;;;;;;;7.22;2.40;;;15.10;85.10;;;;;;5053479;28;20473;-72
2021/12/31 01:00:06;;;;;;;6.20;2.75;;;15.00;85.00;;;;;;5056480;28;20031;-72
2021/12/31 01:02:32;;;;;;;8.02;2.50;;;15.00;85.00;;;;;;5058981;28;20415;-73
2021/12/31 01:04:58;;;;;;;6.57;2.55;;;15.00;85.00;;;;;;5060309;28;20116;-72
2021/12/31 01:07:24;;;;;;;6.40;2.70;;;15.00;85.00;;;;;;5061080;28;20025;-72
2021/12/31 01:09:49;;;;;;;8.60;2.50;;;15.00;85.00;;;;;;5060686;28;20029;-72
2021/12/31 01:12:15;;;;;;;6.65;2.80;;;15.00;84.90;;;;;;5077017;28;20127;-72
2021/12/31 01:14:56;;;;;;;6.95;2.35;;;15.00;84.90;;;;;;5077547;28;20051;-72
2021/12/31 01:20:09;;;;;;;6.28;2.67;;;15.00;84.80;;;;;;5066271;28;20037;-72
2021/12/31 01:22:36;;;;;;;6.05;2.35;;;15.00;84.80;;;;;;5076505;28;20040;-72
2021/12/31 01:25:04;;;;;;;5.32;2.10;;;15.00;84.70;;;;;;5076966;28;20078;-72
2021/12/31 01:27:30;;;;;;;6.75;2.40;;;15.00;84.70;;;;;;5060065;28;20064;-72
2021/12/31 01:29:56;;;;;;;4.57;1.85;;;15.10;84.70;;;;;;5076686;28;20095;-72
2021/12/31 01:32:22;;;;;;;7.22;2.40;;;15.00;84.70;;;;;;5059550;28;20158;-72
2021/12/31 01:34:48;;;;;;;4.93;1.80;;;15.00;84.60;;;;;;5078120;28;20302;-73
2021/12/31 01:37:15;;;;;;;7.82;2.00;;;15.00;84.60;;;;;;5077744;28;20039;-73
2021/12/31 01:39:42;;;;;;;7.00;2.10;;;15.00;84.60;;;;;;5059605;28;20028;-72
2021/12/31 01:42:11;;;;;;;6.25;2.20;;;15.00;84.50;;;;;;5059848;28;20107;-72
2021/12/31 01:44:41;;;;;;;6.40;2.45;;;15.10;84.50;;;;;;5075796;28;20029;-72
2021/12/31 01:47:11;;;;;;;5.53;2.38;;;15.00;84.50;;;;;;5076189;28;20457;-72
2021/12/31 01:49:40;;;;;;;5.85;2.28;;;15.00;84.40;;;;;;5055773;28;20032;-72
2021/12/31 01:52:09;;;;;;;5.90;1.90;;;15.00;84.40;;;;;;5076419;28;20039;-73
2021/12/31 01:54:36;;;;;;;4.88;2.00;;;15.10;84.40;;;;;;5076390;28;20029;-72
2021/12/31 01:57:04;;;;;;;4.47;1.88;;;15.10;84.40;;;;;;5077698;28;20400;-72
2021/12/31 01:59:30;;;;;;;7.43;2.22;;;15.10;84.40;;;;;;5075801;28;20120;-72
2021/12/31 02:01:57;;;;;;;6.07;2.00;;;15.10;84.30;;;;;;5076414;28;20048;-72
2021/12/31 02:04:23;;;;;;;6.78;2.17;;;15.00;84.20;;;;;;5053983;28;20029;-72
2021/12/31 02:06:49;;;;;;;5.25;2.00;;;15.10;84.20;;;;;;5056340;28;20423;-72
2021/12/31 02:09:14;;;;;;;6.30;1.95;;;15.00;84.10;;;;;;5039180;28;20033;-72
2021/12/31 02:11:41;;;;;;;7.28;2.53;;;15.10;84.10;;;;;;5055723;28;20044;-72
2021/12/31 02:14:07;;;;;;;5.85;2.00;;;15.10;84.00;;;;;;5046186;28;20062;-72
2021/12/31 02:16:33;;;;;;;5.72;1.95;;;15.10;84.00;;;;;;5072684;28;20483;-72
2021/12/31 02:19:10;;;;;;;5.63;2.10;;;15.00;83.90;;;;;;5075728;28;20068;-72
2021/12/31 02:21:36;;;;;;;5.00;1.80;;;15.10;83.80;;;;;;5059035;28;20085;-72
2021/12/31 02:24:06;;;;;;;6.13;1.92;;;15.10;83.80;;;;;;5075610;28;20195;-73
2021/12/31 02:26:31;;;;;;;9.15;2.20;;;15.10;83.80;;;;;;5058844;28;20090;-72
2021/12/31 02:28:57;;;;;;;4.35;1.85;;;15.10;83.80;;;;;;5058863;28;20068;-72
2021/12/31 02:31:23;;;;;;;4.97;1.90;;;15.10;83.70;;;;;;5076060;28;20040;-72
2021/12/31 02:33:49;;;;;;;4.72;1.73;;;15.10;83.60;;;;;;5075605;28;20025;-72
2021/12/31 02:36:16;;;;;;;4.30;1.60;;;15.10;83.60;;;;;;5058498;28;20425;-73
2021/12/31 02:38:44;;;;;;;4.45;1.95;;;15.10;83.50;;;;;;5058485;28;20032;-72
2021/12/31 02:41:10;;;;;;;5.80;1.77;;;15.10;83.40;;;;;;5058123;28;20028;-72
2021/12/31 02:43:36;;;;;;;5.07;1.95;;;15.10;83.40;;;;;;5076120;28;20028;-72
2021/12/31 02:46:02;;;;;;;5.32;1.58;;;15.10;83.30;;;;;;5074940;28;20074;-72
2021/12/31 02:48:28;;;;;;;3.55;1.77;;;15.10;83.20;;;;;;5076303;28;20060;-72
2021/12/31 02:50:56;;;;;;;5.03;1.73;;;15.10;83.20;;;;;;5075058;28;20400;-72
2021/12/31 02:53:32;;;;;;;6.30;1.83;;;15.10;83.10;;;;;;5059366;28;20020;-72
2021/12/31 02:56:01;;;;;;;9.38;2.17;;;15.10;83.00;;;;;;5074794;28;20024;-72
2021/12/31 02:58:28;;;;;;;4.78;1.92;;;15.10;83.00;;;;;;5075189;28;20353;-72
2021/12/31 03:00:54;;;;;;;3.80;1.73;;;15.10;83.00;;;;;;5075220;28;20440;-72
2021/12/31 03:03:22;;;;;;;6.55;1.90;;;15.10;83.00;;;;;;5058538;28;20025;-72
2021/12/31 03:05:50;;;;;;;4.43;1.88;;;15.10;83.00;;;;;;5075867;28;20094;-72
2021/12/31 03:08:17;;;;;;;6.07;1.77;;;15.10;82.80;;;;;;5074984;28;20112;-73
2021/12/31 03:10:44;;;;;;;7.22;1.95;;;15.10;82.80;;;;;;5074473;28;20032;-72
2021/12/31 03:13:10;;;;;;;5.80;2.10;;;15.10;82.80;;;;;;5074757;28;20029;-72
2021/12/31 03:15:38;;;;;;;5.03;1.67;;;15.10;82.70;;;;;;5074392;28;20025;-72
2021/12/31 03:18:06;;;;;;;3.75;1.80;;;15.20;82.70;;;;;;5057636;28;20048;-72
2021/12/31 03:20:40;;;;;;;5.32;1.63;;;15.20;82.60;;;;;;5074614;28;20036;-72
2021/12/31 03:23:06;;;;;;;4.35;1.88;;;15.10;82.60;;;;;;5058149;28;20512;-72
2021/12/31 03:25:32;;;;;;;6.38;2.28;;;15.20;82.60;;;;;;5075358;28;20063;-72
2021/12/31 03:27:59;;;;;;;5.63;1.98;;;15.10;82.40;;;;;;5057981;28;20039;-72
2021/12/31 03:30:25;;;;;;;6.72;1.80;;;15.20;82.40;;;;;;5073922;28;20020;-72
2021/12/31 03:32:52;;;;;;;7.78;1.75;;;15.20;82.40;;;;;;5074165;28;20053;-72
2021/12/31 03:35:17;;;;;;;5.82;1.67;;;15.20;82.30;;;;;;5057532;28;20074;-72
2021/12/31 03:37:43;;;;;;;5.43;1.73;;;15.20;82.30;;;;;;5074503;28;20066;-72
2021/12/31 03:40:09;;;;;;;7.95;2.30;;;15.20;82.20;;;;;;5074079;28;20364;-72
2021/12/31 03:42:35;;;;;;;7.22;1.60;;;15.20;82.20;;;;;;5055998;28;20024;-72
2021/12/31 03:45:00;;;;;;;5.45;1.73;;;15.20;82.10;;;;;;5073629;28;20038;-72
2021/12/31 03:47:26;;;;;;;6.50;2.00;;;15.20;82.10;;;;;;5057229;28;20346;-72
2021/12/31 03:49:51;;;;;;;7.38;2.00;;;15.20;82.00;;;;;;5073798;28;20063;-72
2021/12/31 03:52:17;;;;;;;4.88;1.90;;;15.20;82.00;;;;;;5073909;28;20453;-72
2021/12/31 03:54:43;;;;;;;4.28;1.50;;;15.20;81.90;;;;;;5057223;28;20033;-72
2021/12/31 03:57:08;;;;;;;6.35;1.90;;;15.10;81.80;;;;;;5057223;28;20032;-72
2021/12/31 03:59:34;;;;;;;4.53;1.80;;;15.20;81.90;;;;;;5073879;28;20181;-73
2021/12/31 04:01:59;;;;;;;6.60;1.83;;;15.10;81.80;;;;;;5074559;28;20033;-71
2021/12/31 04:04:25;;;;;;;5.78;1.80;;;15.10;81.70;;;;;;5079079;28;20131;-71
2021/12/31 04:06:51;;;;;;;5.45;1.80;;;15.10;81.70;;;;;;5076866;28;20446;-72
2021/12/31 04:09:16;;;;;;;4.85;1.73;;;15.10;81.60;;;;;;5074645;28;20029;-72
2021/12/31 04:11:42;;;;;;;4.38;1.90;;;15.20;81.60;;;;;;5073877;28;20032;-72
2021/12/31 04:14:08;;;;;;;7.45;2.08;;;15.10;81.60;;;;;;5057061;28;20445;-71
2021/12/31 04:16:34;;;;;;;4.90;1.70;;;15.10;81.60;;;;;;5073770;28;20040;-72
2021/12/31 04:18:59;;;;;;;8.00;2.03;;;15.10;81.70;;;;;;5056634;28;20028;-72
2021/12/31 04:21:26;;;;;;;3.75;1.42;;;15.10;81.70;;;;;;5057269;28;20040;-72
2021/12/31 04:24:04;;;;;;;4.45;1.67;;;15.10;81.60;;;;;;5073710;28;20029;-72
2021/12/31 04:26:30;;;;;;;4.50;2.05;;;15.10;81.60;;;;;;5073467;28;20153;-72
2021/12/31 04:28:56;;;;;;;6.88;2.10;;;15.10;81.60;;;;;;5073504;28;20032;-72
2021/12/31 04:31:22;;;;;;;4.97;1.92;;;15.10;81.50;;;;;;5074229;28;20020;-72
2021/12/31 04:33:48;;;;;;;4.65;1.70;;;15.10;81.50;;;;;;5074205;28;20522;-72
2021/12/31 04:36:14;;;;;;;6.05;1.90;;;15.10;81.40;;;;;;5073395;28;20075;-72
2021/12/31 04:38:39;;;;;;;4.35;2.00;;;15.10;81.40;;;;;;5077532;28;20318;-72
2021/12/31 04:41:05;;;;;;;6.05;1.88;;;15.10;81.40;;;;;;5060969;28;20025;-72
2021/12/31 04:43:31;;;;;;;6.38;2.10;;;15.10;81.40;;;;;;5060611;28;20028;-72
2021/12/31 04:45:56;;;;;;;4.82;1.90;;;15.10;81.40;;;;;;5078327;28;20029;-72
2021/12/31 04:48:22;;;;;;;6.55;1.58;;;15.10;81.40;;;;;;5077459;28;20032;-72
2021/12/31 04:50:48;;;;;;;6.10;1.80;;;15.10;81.40;;;;;;5078119;28;20032;-72
2021/12/31 04:53:14;;;;;;;5.10;1.90;;;15.10;81.40;;;;;;5077542;28;20031;-72
2021/12/31 04:55:40;;;;;;;6.00;2.03;;;15.10;81.40;;;;;;5077388;28;20033;-72
2021/12/31 04:58:05;;;;;;;6.18;2.15;;;15.10;81.40;;;;;;5076961;28;20036;-72
2021/12/31 05:00:31;;;;;;;7.38;2.20;;;15.00;81.40;;;;;;5060364;28;20052;-72
2021/12/31 05:02:57;;;;;;;7.95;2.30;;;15.10;81.40;;;;;;5060278;28;20374;-72
2021/12/31 05:05:22;;;;;;;4.30;1.92;;;15.00;81.30;;;;;;5077074;28;20036;-73
2021/12/31 05:07:48;;;;;;;7.55;2.20;;;15.00;81.30;;;;;;5077682;28;20028;-72
2021/12/31 05:10:15;;;;;;;5.07;1.85;;;15.10;81.40;;;;;;5077090;28;20043;-72
2021/12/31 05:12:42;;;;;;;5.72;1.92;;;15.00;81.30;;;;;;5060480;28;20029;-72
2021/12/31 05:15:09;;;;;;;4.85;1.98;;;15.00;81.30;;;;;;5076696;28;20086;-72
2021/12/31 05:17:36;;;;;;;5.68;1.85;;;15.00;81.30;;;;;;5078075;28;20037;-72
2021/12/31 05:20:03;;;;;;;4.57;1.70;;;15.00;81.30;;;;;;5077597;28;20028;-72
2021/12/31 05:22:29;;;;;;;9.15;2.38;;;15.00;81.30;;;;;;5078006;28;20033;-72
2021/12/31 05:24:56;;;;;;;4.78;1.88;;;15.00;81.30;;;;;;5076419;28;20033;-72
2021/12/31 05:27:22;;;;;;;6.55;2.63;;;15.00;81.30;;;;;;5076568;28;20127;-72
2021/12/31 05:29:47;;;;;;;5.22;1.83;;;15.00;81.30;;;;;;5077196;28;20075;-72
2021/12/31 05:32:13;;;;;;;4.90;1.98;;;15.00;81.30;;;;;;5059767;28;20114;-72
2021/12/31 05:34:38;;;;;;;4.95;1.90;;;15.00;81.30;;;;;;5076562;28;20128;-72
2021/12/31 05:37:04;;;;;;;4.95;2.05;;;15.00;81.40;;;;;;5076583;28;20107;-72
2021/12/31 05:39:30;;;;;;;5.95;2.30;;;14.90;81.40;;;;;;5059602;28;20384;-72
2021/12/31 05:41:55;;;;;;;6.40;2.25;;;15.00;81.40;;;;;;5077291;28;20025;-72
2021/12/31 05:44:22;;;;;;;5.95;2.10;;;14.90;81.40;;;;;;5059487;28;20115;-72
2021/12/31 05:46:50;;;;;;;5.82;2.20;;;14.90;81.40;;;;;;5076739;28;20060;-73
2021/12/31 05:49:16;;;;;;;7.03;3.00;;;14.90;81.40;;;;;;5076575;28;20028;-72
2021/12/31 05:51:42;;;;;;;6.60;2.40;;;14.90;81.90;;;;;;5075828;28;20115;-72
2021/12/31 05:54:07;;;;;;;6.78;2.60;;;14.90;81.20;;;;;;5076779;28;20518;-72
2021/12/31 05:56:33;;;;;;;6.68;2.30;;;14.90;81.30;;;;;;5059125;28;20028;-72
2021/12/31 05:58:59;;;;;;;5.25;2.13;;;14.90;81.30;;;;;;5075788;28;20074;-72
2021/12/31 06:01:25;;;;;;;5.90;2.30;;;14.90;81.30;;;;;;5076321;28;20056;-71
2021/12/31 06:03:51;;;;;;;5.63;2.15;;;14.90;81.30;;;;;;5077238;28;20040;-72
2021/12/31 06:06:16;;;;;;;6.90;2.10;;;14.90;81.30;;;;;;5075494;28;20043;-72
2021/12/31 06:08:42;;;;;;;5.90;2.28;;;14.90;81.20;;;;;;5068851;28;20123;-72
2021/12/31 06:11:09;;;;;;;6.53;2.50;;;14.90;81.20;;;;;;5075513;28;20024;-72
2021/12/31 06:13:38;;;;;;;6.15;2.30;;;14.90;81.30;;;;;;5075380;28;20035;-72
2021/12/31 06:16:07;;;;;;;6.65;2.15;;;14.90;81.30;;;;;;5076107;28;20036;-72
2021/12/31 06:18:33;;;;;;;4.93;2.20;;;14.90;81.20;;;;;;5058793;28;20028;-72
2021/12/31 06:20:59;;;;;;;6.88;2.35;;;14.80;81.20;;;;;;5055019;28;20028;-72
2021/12/31 06:23:24;;;;;;;6.25;2.25;;;14.90;81.20;;;;;;5057892;28;20029;-72
2021/12/31 06:25:50;;;;;;;5.57;2.00;;;14.80;81.20;;;;;;5074965;28;20024;-72
2021/12/31 06:28:15;;;;;;;6.13;2.42;;;14.90;81.20;;;;;;5075252;28;19919;-71
2021/12/31 06:30:41;;;;;;;5.70;1.92;;;14.80;81.20;;;;;;5074351;28;20112;-71
2021/12/31 06:33:07;;;;;;;5.85;2.13;;;14.80;81.20;;;;;;5074271;28;20064;-70
2021/12/31 06:35:32;;;;;;;7.72;2.40;;;14.80;81.10;;;;;;5058222;28;20029;-71
2021/12/31 06:37:59;;;;;;;4.60;2.08;;;14.80;81.10;;;;;;5074556;28;20035;-71
2021/12/31 06:40:25;;;;;;;5.82;2.25;;;14.80;81.10;;;;;;5074834;28;20093;-71
2021/12/31 06:42:51;;;;;;;5.97;2.20;;;14.80;81.00;;;;;;5058757;28;20044;-71
2021/12/31 06:45:17;;;;;;;5.05;2.20;;;14.80;81.00;;;;;;5075863;28;20024;-71
2021/12/31 06:47:43;;;;;;;5.20;2.15;;;14.80;81.10;;;;;;5074453;28;20342;-72
2021/12/31 06:50:08;;;;;;;3.88;1.80;;;14.80;81.00;;;;;;5075011;28;20372;-72
2021/12/31 06:52:38;;;;;;;6.45;1.98;;;14.70;81.00;;;;;;5075822;28;20020;-72
2021/12/31 06:55:08;;;;;;;4.47;2.10;;;14.70;80.90;;;;;;5057824;28;20055;-72
2021/12/31 06:57:34;;;;;;;5.40;2.30;;;14.70;80.90;;;;;;5075845;28;20173;-72
2021/12/31 07:00:00;;;;;;;4.18;2.20;;;14.70;80.90;;;;;;5059423;28;20338;-71
2021/12/31 07:02:26;;;;;;;5.63;2.20;;;14.70;80.90;;;;;;5064316;28;20039;-71
2021/12/31 07:04:51;;;;;;;7.10;2.63;;;14.70;80.90;;;;;;5079254;28;20028;-72
2021/12/31 07:07:17;;;;;;;4.97;2.20;;;14.60;80.90;;;;;;5076619;28;20067;-72
2021/12/31 07:09:42;;;;;;;8.45;2.30;;;14.60;80.90;;;;;;5075202;28;20025;-72
2021/12/31 07:12:08;;;;;;;5.03;2.08;;;14.60;80.90;;;;;;5075320;28;20111;-72
2021/12/31 07:14:34;;;;;;;5.18;1.95;;;14.60;80.90;;;;;;5075621;28;20029;-72
2021/12/31 07:17:00;;;;;;;6.03;2.33;;;14.60;80.90;;;;;;5057241;28;20078;-72
2021/12/31 07:19:25;;;;;;;6.07;2.45;;;14.60;80.80;;;;;;5054471;28;20072;-71
2021/12/31 07:21:51;;;;;;;5.65;2.00;;;14.60;80.80;;;;;;5056994;28;20457;-73
2021/12/31 07:24:17;;;;;;;6.22;2.15;;;14.60;80.70;;;;;;5057824;28;20032;-73
2021/12/31 07:26:42;;;;;;;7.43;2.15;;;14.60;80.60;;;;;;5074522;28;20090;-72
2021/12/31 07:29:08;;;;;;;4.93;2.25;;;14.50;80.60;;;;;;5057489;28;20028;-73
2021/12/31 07:31:34;;;;;;;5.53;2.15;;;14.50;80.60;;;;;;5073618;28;20491;-73
2021/12/31 07:33:59;;;;;;;5.57;2.40;;;14.50;80.50;;;;;;5073871;28;20028;-76
2021/12/31 07:36:27;;;;;;;5.28;2.08;;;14.60;80.50;;;;;;5073839;28;20475;-74
2021/12/31 07:39:00;;;;;;;6.65;2.17;;;14.60;80.50;;;;;;5057161;28;20025;-73
2021/12/31 07:41:27;;;;;;;6.22;2.33;;;14.60;80.40;;;;;;5072930;28;20032;-74
2021/12/31 07:43:52;;;;;;;5.53;2.17;;;14.50;80.30;;;;;;5056823;28;20033;-75
2021/12/31 07:46:18;;;;;;;5.55;2.40;;;14.60;80.30;;;;;;5074069;28;20314;-75
2021/12/31 07:48:43;;;;;;;6.03;2.55;;;14.50;80.20;;;;;;5056898;28;20111;-74
2021/12/31 07:51:09;;;;;;;6.13;2.50;;;14.50;80.20;;;;;;5056886;28;20721;-74
2021/12/31 07:53:35;;;;;;;4.07;1.67;;;14.50;80.20;;;;;;5074305;28;20040;-73
2021/12/31 07:56:01;;;;;;;4.13;1.83;;;14.50;80.30;;;;;;5073199;28;20041;-73
2021/12/31 07:58:27;;;;;;;8.48;2.20;;;14.50;80.30;;;;;;5073396;28;20449;-74
2021/12/31 08:00:53;;;;;;;5.10;2.10;;;14.50;80.30;;;;;;5073174;28;20033;-73
2021/12/31 08:03:19;;;;;;;6.72;2.38;;;14.40;80.20;;;;;;5073299;28;20444;-72
2021/12/31 08:05:45;;;;;;;4.22;1.88;;;14.40;80.20;;;;;;5056159;28;20419;-73
2021/12/31 08:08:10;;;;;;;7.45;2.72;;;14.40;80.30;;;;;;5072652;28;20032;-72
2021/12/31 08:10:38;;;;;;;7.03;2.22;;;14.40;80.30;;;;;;5074480;28;20423;-72
2021/12/31 08:13:04;;;;;;;6.28;2.08;;;14.40;80.20;;;;;;5073278;28;20107;-73
2021/12/31 08:15:30;;;;;;;5.90;2.08;;;14.40;80.30;;;;;;5074236;28;20032;-73
2021/12/31 08:17:55;;;;;;;4.82;2.08;;;14.30;80.20;;;;;;5073439;28;20093;-72
2021/12/31 08:20:22;;;;;;;7.82;2.58;;;14.40;80.20;;;;;;5073617;28;20091;-72
2021/12/31 08:22:48;;;;;;;7.40;2.50;;;14.40;80.20;;;;;;5073086;28;20376;-72
2021/12/31 08:25:13;;;;;;;4.25;2.13;;;14.40;80.10;;;;;;5075422;28;20125;-72
2021/12/31 08:27:39;;;;;;;4.88;2.10;;;14.40;80.10;;;;;;5085378;28;20067;-77
2021/12/31 08:30:07;;;;;;;4.07;2.00;;;14.40;80.00;;;;;;5072521;28;20028;-72
2021/12/31 08:32:34;;;;;;;5.32;1.83;;;14.40;80.00;;;;;;5073364;28;20051;-72
2021/12/31 08:34:59;;;;;;;4.80;1.83;;;14.40;79.90;;;;;;5056556;28;20032;-71
2021/12/31 08:37:25;;;;;;;4.75;2.00;;;14.40;79.90;;;;;;5073848;28;20041;-72
2021/12/31 08:39:50;;;;;;;5.60;1.90;;;14.40;80.00;;;;;;5074834;28;20067;-72
2021/12/31 08:42:16;;;;;;;5.75;2.00;;;14.30;79.90;;;;;;5073361;28;20064;-72
2021/12/31 08:44:42;;;;;;;6.03;1.80;;;14.40;80.00;;;;;;5056897;28;20032;-72
2021/12/31 08:47:07;;;;;;;6.13;2.30;;;14.40;79.90;;;;;;5056681;28;20029;-72
2021/12/31 08:49:33;;;;;;;5.80;2.10;;;14.40;79.90;;;;;;5073688;28;20461;-72
2021/12/31 08:52:00;;;;;;;4.65;2.33;;;14.40;79.80;;;;;;5056697;28;20417;-71
2021/12/31 08:54:26;;;;;;;4.63;2.10;;;14.40;79.70;;;;;;5074160;28;20035;-72
2021/12/31 08:56:52;;;;;;;5.68;2.53;;;14.40;79.70;;;;;;5072727;28;20376;-71
2021/12/31 08:59:19;;;;;;;5.40;2.05;;;14.40;79.60;;;;;;5074710;28;20044;-72
2021/12/31 09:01:45;;;;;;;7.22;2.30;;;14.40;79.50;;;;;;5074493;28;20032;-71
2021/12/31 09:04:11;;;;;;;6.20;2.20;;;14.40;79.50;;;;;;5056669;28;20036;-72
2021/12/31 09:06:37;;;;;;;7.38;2.65;;;14.40;79.50;;;;;;5074448;28;20043;-72
2021/12/31 09:09:05;;;;;;;4.63;1.85;;;14.40;79.30;;;;;;5073216;28;20029;-72
2021/12/31 09:11:31;;;;;;;4.95;2.15;;;14.40;79.40;;;;;;5056331;28;20098;-72
2021/12/31 09:13:57;;;;;;;5.55;1.95;;;14.40;79.30;;;;;;5073615;28;20475;-72
2021/12/31 09:16:24;;;;;;;7.38;2.50;;;14.40;79.30;;;;;;5073187;28;20090;-72
2021/12/31 09:18:49;;;;;;;6.38;2.35;;;14.50;79.30;;;;;;5073489;28;20032;-71
2021/12/31 09:21:20;;;;;;;5.60;1.90;;;14.40;79.20;;;;;;5074291;28;20416;-72
2021/12/31 09:23:46;;;;;;;5.65;2.30;;;14.40;79.20;;;;;;5076641;28;20047;-73
2021/12/31 09:26:12;;;;;;;6.07;2.25;;;14.40;79.00;;;;;;5081140;28;20028;-71
2021/12/31 09:28:38;;;;;;;4.63;1.92;;;14.50;79.20;;;;;;5079654;28;20047;-71
2021/12/31 09:31:05;;;;;;;4.90;1.77;;;14.40;79.00;;;;;;5077067;28;20107;-71
2021/12/31 09:33:31;;;;;;;4.95;1.95;;;14.40;79.00;;;;;;5078182;28;20107;-72
2021/12/31 09:35:56;;;;;;;5.55;1.88;;;14.40;79.00;;;;;;5077319;28;20048;-71
2021/12/31 09:38:22;;;;;;;4.32;1.85;;;14.40;79.00;;;;;;5077228;28;20043;-72
2021/12/31 09:40:48;;;;;;;6.82;2.47;;;14.50;79.00;;;;;;5076405;28;20033;-72
2021/12/31 09:43:14;;;;;;;4.97;2.25;;;14.50;78.90;;;;;;5077325;28;20060;-72
2021/12/31 09:45:44;;;;;;;5.50;2.28;;;14.50;78.80;;;;;;5075490;28;20369;-72
2021/12/31 09:48:12;;;;;;;4.13;1.60;;;14.50;78.80;;;;;;5075744;28;20406;-72
2021/12/31 09:50:48;;;;;;;6.45;2.40;;;14.50;78.80;;;;;;5077391;28;20101;-73
2021/12/31 09:53:15;;;;;;;5.65;2.25;;;14.50;78.70;;;;;;5077636;28;20028;-74
2021/12/31 09:55:47;;;;;;;5.03;1.95;;;14.50;78.70;;;;;;5059252;28;20410;-74
2021/12/31 09:58:15;;;;;;;5.18;2.20;;;14.50;78.70;;;;;;5074888;28;20028;-74
2021/12/31 10:00:46;;;;;;;7.40;2.47;;;14.50;78.70;;;;;;5058518;28;20046;-75
2021/12/31 10:03:16;;;;;;;;;;;14.60;78.70;;;;;;5072854;28;20021;-73
2021/12/31 10:05:43;;;;;;;5.50;1.90;;;14.60;78.70;;;;;;5079018;28;19927;-72
2021/12/31 10:08:24;;;;;;;4.47;1.85;;;14.60;78.60;;;;;;5087363;28;20032;-73
2021/12/31 10:11:07;;;;;;;4.65;2.00;;;14.60;78.40;;;;;;5078617;28;20035;-75
2021/12/31 10:13:35;;;;;;;5.18;2.00;;;14.60;78.40;;;;;;5072741;28;20035;-74
2021/12/31 10:16:01;;;;;;;6.15;2.10;;;14.60;78.30;;;;;;5051195;28;20433;-74
2021/12/31 10:18:35;;;;;;;5.72;2.28;;;14.60;78.40;;;;;;5066810;28;20109;-73
2021/12/31 10:21:02;;;;;;;6.05;2.28;;;14.60;78.30;;;;;;5068055;28;20047;-73
2021/12/31 10:23:27;;;;;;;4.03;1.88;;;14.60;78.30;;;;;;5074174;28;20115;-74
2021/12/31 10:26:13;;;;;;;6.10;2.25;;;14.60;78.30;;;;;;5074993;28;20119;-74
2021/12/31 10:28:59;;;;;;;5.05;1.92;;;14.60;78.30;;;;;;5077952;28;20028;-74
2021/12/31 10:31:27;;;;;;;4.63;1.92;;;14.60;78.30;;;;;;5074146;28;20098;-77
2021/12/31 10:33:53;;;;;;;7.88;2.55;;;14.60;78.40;;;;;;5071448;28;20469;-77
2021/12/31 10:36:37;;;;;;;5.72;2.20;;;14.60;78.40;;;;;;5071319;28;20030;-77
2021/12/31 10:39:24;;;;;;;5.00;1.92;;;14.60;78.30;;;;;;5073174;28;20099;-75
2021/12/31 10:42:00;;;;;;;7.07;2.67;;;14.60;78.30;;;;;;5087770;28;20040;-74
2021/12/31 10:44:42;;;;;;;6.20;2.00;;;14.60;78.30;;;;;;5072779;28;20090;-75
2021/12/31 10:47:13;;;;;;;4.78;1.95;;;14.60;78.20;;;;;;5072680;28;20046;-74
2021/12/31 10:50:04;;;;;;;3.78;1.70;;;14.60;78.20;;;;;;5071194;28;20116;-74
2021/12/31 10:52:42;;;;;;;5.53;2.28;;;14.60;78.10;;;;;;5075395;28;20016;-75
2021/12/31 10:55:19;;;;;;;6.28;2.25;;;14.60;78.10;;;;;;5074181;28;20114;-74
2021/12/31 10:57:53;;;;;;;6.18;2.35;;;14.70;78.10;;;;;;5073850;28;20047;-73
2021/12/31 11:00:20;;;;;;;7.13;2.33;;;14.70;77.90;;;;;;5057487;28;20028;-74
2021/12/31 11:02:47;;;;;;;6.30;1.92;;;14.70;77.90;;;;;;5075241;28;20103;-73
2021/12/31 11:05:16;;;;;;;6.28;2.05;;;14.80;77.80;;;;;;5057163;28;20032;-74
2021/12/31 11:07:42;;;;;;;6.65;2.20;;;14.80;77.80;;;;;;5074402;28;20033;-73
2021/12/31 11:10:10;;;;;;;5.00;2.13;;;14.80;77.70;;;;;;5074382;28;20541;-74
2021/12/31 11:12:36;;;;;;;6.93;2.20;;;14.80;77.60;;;;;;5074265;28;20020;-74
2021/12/31 11:15:04;;;;;;;4.90;2.22;;;14.80;77.60;;;;;;5074461;28;20021;-74
2021/12/31 11:17:31;;;;;;;5.10;2.05;;;14.80;77.50;;;;;;5074600;28;20038;-75
2021/12/31 11:19:57;;;;;;;5.05;2.00;;;14.80;77.60;;;;;;5058011;28;20461;-74
2021/12/31 11:22:29;;;;;;;5.32;2.30;;;14.80;77.60;;;;;;5058136;28;20036;-74
2021/12/31 11:25:17;;;;;;;5.25;2.00;;;14.80;77.70;;;;;;5074780;28;20120;-73
2021/12/31 11:27:47;;;;;;;5.47;1.92;;;14.80;77.80;;;;;;5071177;28;20368;-74
2021/12/31 11:30:43;;;;;;;7.00;2.38;;;14.80;77.80;;;;;;5058116;28;20088;-73
2021/12/31 11:33:20;;;;;;;6.30;2.10;;;14.80;77.70;;;;;;5054036;28;20040;-74
2021/12/31 11:36:05;;;;;;;5.82;2.47;;;14.80;77.70;;;;;;5072847;28;20041;-71
2021/12/31 11:38:30;;;;;;;5.28;2.08;;;14.90;77.60;;;;;;5073077;28;20032;-75
2021/12/31 11:41:03;;;;;;;5.60;2.10;;;14.90;77.60;;;;;;5075637;28;20032;-74
2021/12/31 11:43:31;;;;;;;7.38;2.60;;;14.90;77.50;;;;;;5073402;28;20032;-73
2021/12/31 11:46:09;;;;;;;5.60;2.15;;;15.00;77.50;;;;;;5056323;28;20070;-71
2021/12/31 11:48:43;;;;;;;6.22;1.77;;;15.00;77.30;;;;;;5074735;28;20020;-73
2021/12/31 11:51:20;;;;;;;5.85;2.05;;;15.10;77.30;;;;;;5078459;28;20063;-73
2021/12/31 11:54:00;;;;;;;5.22;2.17;;;15.10;77.20;;;;;;5063568;28;20032;-73
2021/12/31 11:56:49;;;;;;;4.88;2.10;;;15.10;77.10;;;;;;5077334;28;20029;-73
2021/12/31 11:59:17;;;;;;;5.57;2.10;;;15.10;77.20;;;;;;5075431;28;20064;-73
2021/12/31 12:01:55;;;;;;;5.28;2.28;;;15.10;77.30;;;;;;5075341;28;20035;-73
2021/12/31 12:04:21;;;;;;;5.68;2.20;;;15.10;77.20;;;;;;5074923;28;20028;-73
2021/12/31 12:07:17;;;;;;;4.18;2.00;;;15.20;77.20;;;;;;5073963;28;20032;-73
2021/12/31 12:09:43;;;;;;;6.88;2.50;;;15.20;77.00;;;;;;5073842;28;20040;-74
2021/12/31 12:12:15;;;;;;;6.35;2.80;;;15.20;77.00;;;;;;5075140;28;20028;-72
2021/12/31 12:14:53;;;;;;;5.53;2.13;;;15.20;77.10;;;;;;5073847;28;20089;-73
2021/12/31 12:17:31;;;;;;;4.90;2.25;;;15.20;77.30;;;;;;5075048;28;20071;-73
2021/12/31 12:20:02;;;;;;;6.72;2.35;;;15.10;78.10;;;;;;5073706;28;20461;-74
2021/12/31 12:22:57;;;;;;;5.70;2.40;;;15.10;77.70;;;;;;5073777;28;20105;-73
2021/12/31 12:25:31;;;;;;;6.72;2.53;;;15.10;77.90;;;;;;5064578;28;20047;-73
2021/12/31 12:28:04;;;;;;;7.15;2.92;;;15.10;78.10;;;;;;5056311;28;20262;-74
2021/12/31 12:30:30;;;;;;;5.47;2.55;;;15.10;78.20;;;;;;5056705;28;20377;-73
2021/12/31 12:35:39;;;;;;;6.18;2.55;;;15.10;78.40;;;;;;5074374;28;20044;-76
2021/12/31 12:38:06;;;;;;;8.85;2.72;;;15.10;78.50;;;;;;5074165;28;20111;-75
2021/12/31 12:40:39;;;;;;;8.23;2.50;;;15.10;78.50;;;;;;5073558;28;20362;-73
2021/12/31 12:43:17;;;;;;;5.95;2.75;;;15.20;78.60;;;;;;5072854;28;20029;-71
2021/12/31 12:45:46;;;;;;;7.18;2.88;;;15.20;78.50;;;;;;5073085;28;20383;-73
2021/12/31 12:48:12;;;;;;;8.05;2.70;;;15.30;78.40;;;;;;5072839;28;20032;-71
2021/12/31 12:50:45;;;;;;;7.07;2.47;;;15.30;78.20;;;;;;5073950;28;20100;-72
2021/12/31 12:53:18;;;;;;;7.07;2.35;;;15.30;78.20;;;;;;5073772;28;20025;-72
2021/12/31 12:55:44;;;;;;;8.23;2.65;;;15.30;78.10;;;;;;5056177;28;20119;-72
2021/12/31 12:58:21;;;;;;;9.02;3.00;;;15.30;78.10;;;;;;5074224;28;20056;-72